createdAt,value
2022-11-07T00:02:17.722Z,55.23
2022-11-07T00:04:46.097Z,55.57
2022-11-07T00:07:14.469Z,56.04
2022-11-07T00:09:43.059Z,57.61
2022-11-07T00:12:11.348Z,58.78
2022-11-07T00:14:40.022Z,59.48
2022-11-07T00:17:09.470Z,63.57
2022-11-07T00:19:37.904Z,65.48
2022-11-07T00:22:06.499Z,62.60
2022-11-07T00:24:35.137Z,57.85
2022-11-07T00:27:03.773Z,54.35
2022-11-07T00:29:32.152Z,54.75
2022-11-07T00:32:00.602Z,56.37
2022-11-07T00:34:29.197Z,57.48
2022-11-07T00:36:57.686Z,58.64
2022-11-07T00:39:26.205Z,59.82
2022-11-07T00:41:54.873Z,63.71
2022-11-07T00:44:23.231Z,67.01
2022-11-07T00:46:51.805Z,64.17
2022-11-07T00:49:20.215Z,58.67
2022-11-07T00:51:48.882Z,55.59
2022-11-07T00:54:17.353Z,56.15
2022-11-07T00:56:45.728Z,57.24
2022-11-07T00:59:14.738Z,58.36
2022-11-07T01:01:43.399Z,59.77
2022-11-07T01:04:32.673Z,63.30
2022-11-07T01:07:02.178Z,64.69
2022-11-07T01:09:30.453Z,63.92
2022-11-07T01:11:59.244Z,61.63
2022-11-07T01:14:27.724Z,57.82
2022-11-07T01:16:56.100Z,55.33
2022-11-07T01:19:24.789Z,56.19
2022-11-07T01:21:53.348Z,57.69
2022-11-07T01:24:21.872Z,59.54
2022-11-07T01:26:52.175Z,62.78
2022-11-07T01:29:20.904Z,65.76
2022-11-07T01:31:49.225Z,61.79
2022-11-07T01:34:18.198Z,57.56
2022-11-07T01:36:46.699Z,55.58
2022-11-07T01:39:15.146Z,56.28
2022-11-07T01:41:43.982Z,59.09
2022-11-07T01:44:12.562Z,61.19
2022-11-07T01:46:43.531Z,63.83
2022-11-07T01:49:17.922Z,64.63
2022-11-07T01:51:52.178Z,62.70
2022-11-07T01:54:24.959Z,58.43
2022-11-07T01:56:57.242Z,57.02
2022-11-07T01:59:29.781Z,58.07
2022-11-07T02:01:59.161Z,60.72
2022-11-07T02:04:31.341Z,63.40
2022-11-07T02:07:08.570Z,64.12
2022-11-07T02:09:37.112Z,62.52
2022-11-07T02:12:06.498Z,59.62
2022-11-07T02:14:34.642Z,57.20
2022-11-07T02:17:03.263Z,58.04
2022-11-07T02:19:34.704Z,59.57
2022-11-07T02:22:13.503Z,62.91
2022-11-07T02:24:42.220Z,66.22
2022-11-07T02:27:17.731Z,63.14
2022-11-07T02:29:49.532Z,58.81
2022-11-07T02:32:17.903Z,56.06
2022-11-07T02:34:46.135Z,57.59
2022-11-07T02:37:24.264Z,58.49
2022-11-07T02:39:53.391Z,59.88
2022-11-07T02:42:22.488Z,63.87
2022-11-07T02:44:52.954Z,65.38
2022-11-07T02:47:21.379Z,64.24
2022-11-07T02:49:49.745Z,61.68
2022-11-07T02:52:18.035Z,57.77
2022-11-07T02:54:46.515Z,56.47
2022-11-07T02:57:15.064Z,57.25
2022-11-07T02:59:43.680Z,58.66
2022-11-07T03:02:11.952Z,62.15
2022-11-07T03:04:43.960Z,65.42
2022-11-07T03:07:15.060Z,64.73
2022-11-07T03:09:43.233Z,62.66
2022-11-07T03:12:11.656Z,57.69
2022-11-07T03:14:39.968Z,55.45
2022-11-07T03:17:09.064Z,56.69
2022-11-07T03:19:37.363Z,58.12
2022-11-07T03:22:05.734Z,60.02
2022-11-07T03:24:34.387Z,63.50
2022-11-07T03:27:02.576Z,66.36
2022-11-07T03:29:30.874Z,63.45
2022-11-07T03:31:59.460Z,58.14
2022-11-07T03:34:27.632Z,56.55
2022-11-07T03:36:56.009Z,57.36
2022-11-07T03:39:26.126Z,58.65
2022-11-07T03:41:54.610Z,59.83
2022-11-07T03:44:23.130Z,63.05
2022-11-07T03:46:51.462Z,65.19
2022-11-07T03:49:19.644Z,64.54
2022-11-07T03:51:48.022Z,63.25
2022-11-07T03:54:16.432Z,62.76
2022-11-07T03:56:44.634Z,61.46
2022-11-07T03:59:12.847Z,60.55
2022-11-07T04:01:41.430Z,60.45
2022-11-07T04:04:09.809Z,60.07
2022-11-07T04:06:38.067Z,58.26
2022-11-07T04:09:06.562Z,57.35
2022-11-07T04:11:53.479Z,59.07
2022-11-07T04:14:40.802Z,60.20
2022-11-07T04:17:20.457Z,63.14
2022-11-07T04:19:51.334Z,65.10
2022-11-07T04:22:19.513Z,64.67
2022-11-07T04:24:48.308Z,63.52
2022-11-07T04:27:37.713Z,63.23
2022-11-07T04:30:23.959Z,61.83
2022-11-07T04:32:58.431Z,61.97
2022-11-07T04:35:30.870Z,61.23
2022-11-07T04:38:00.543Z,61.23
2022-11-07T04:40:29.879Z,60.66
2022-11-07T04:42:58.706Z,60.33
2022-11-07T04:45:26.938Z,60.60
2022-11-07T04:47:55.459Z,60.42
2022-11-07T04:50:23.856Z,60.22
2022-11-07T04:52:52.421Z,58.78
2022-11-07T04:55:25.073Z,58.97
2022-11-07T04:57:53.580Z,59.65
2022-11-07T05:00:22.355Z,62.90
2022-11-07T05:02:51.690Z,65.11
2022-11-07T05:05:20.476Z,64.02
2022-11-07T05:07:48.950Z,63.83
2022-11-07T05:10:26.547Z,62.96
2022-11-07T05:12:56.136Z,62.52
2022-11-07T05:15:24.515Z,62.05
2022-11-07T05:17:53.797Z,61.42
2022-11-07T05:20:22.192Z,60.51
2022-11-07T05:23:09.487Z,59.74
2022-11-07T05:25:39.048Z,57.37
2022-11-07T05:28:07.501Z,58.42
2022-11-07T05:30:38.775Z,59.38
2022-11-07T05:33:08.973Z,62.21
2022-11-07T05:35:37.250Z,64.41
2022-11-07T05:38:06.032Z,63.70
2022-11-07T05:40:39.470Z,63.22
2022-11-07T05:43:10.267Z,62.82
2022-11-07T05:45:39.153Z,61.73
2022-11-07T05:48:13.682Z,61.31
2022-11-07T05:50:42.162Z,61.76
2022-11-07T05:53:10.707Z,61.47
2022-11-07T05:55:39.739Z,61.38
2022-11-07T05:58:12.515Z,60.68
2022-11-07T06:00:41.404Z,60.93
2022-11-07T06:03:10.532Z,60.75
2022-11-07T06:05:39.391Z,60.73
2022-11-07T06:08:10.851Z,60.57
2022-11-07T06:10:41.194Z,60.87
2022-11-07T06:13:13.476Z,60.57
2022-11-07T06:15:44.119Z,61.24
2022-11-07T06:18:18.274Z,61.83
2022-11-07T06:20:47.379Z,61.77
2022-11-07T06:23:16.399Z,61.52
2022-11-07T06:25:44.977Z,60.76
2022-11-07T06:28:15.050Z,59.92
2022-11-07T06:30:44.220Z,60.74
2022-11-07T06:33:16.776Z,60.80
2022-11-07T06:35:46.040Z,60.95
2022-11-07T06:38:15.624Z,60.36
2022-11-07T06:40:44.575Z,60.98
2022-11-07T06:43:20.009Z,61.44
2022-11-07T06:45:48.787Z,60.82
2022-11-07T06:48:17.361Z,61.37
2022-11-07T06:50:45.513Z,61.49
2022-11-07T06:53:14.476Z,60.73
2022-11-07T06:55:43.460Z,61.24
2022-11-07T06:58:11.647Z,60.84
2022-11-07T07:00:40.048Z,60.45
2022-11-07T07:03:08.801Z,59.95
2022-11-07T07:05:37.638Z,60.44
2022-11-07T07:08:08.055Z,60.40
2022-11-07T07:10:44.715Z,59.58
2022-11-07T07:13:14.767Z,59.62
2022-11-07T07:15:51.484Z,58.49
2022-11-07T07:18:20.734Z,58.98
2022-11-07T07:20:50.613Z,59.77
2022-11-07T07:23:20.938Z,63.02
2022-11-07T07:25:49.777Z,64.80
2022-11-07T07:28:18.078Z,65.18
2022-11-07T07:30:51.662Z,64.43
2022-11-07T07:33:21.265Z,63.90
2022-11-07T07:35:49.514Z,63.44
2022-11-07T07:38:18.313Z,62.60
2022-11-07T07:40:47.029Z,62.33
2022-11-07T07:43:15.984Z,61.94
2022-11-07T07:45:44.619Z,61.49
2022-11-07T07:48:12.940Z,61.46
2022-11-07T07:50:41.426Z,61.30
2022-11-07T07:53:10.002Z,61.85
2022-11-07T07:55:38.622Z,61.88
2022-11-07T07:58:06.866Z,61.68
2022-11-07T08:00:35.888Z,60.81
2022-11-07T08:03:10.413Z,60.21
2022-11-07T08:05:39.680Z,59.62
2022-11-07T08:08:08.881Z,59.05
2022-11-07T08:10:42.403Z,57.93
2022-11-07T08:13:11.483Z,58.97
2022-11-07T08:15:40.064Z,60.26
2022-11-07T08:18:08.290Z,62.41
2022-11-07T08:20:36.699Z,64.92
2022-11-07T08:23:14.628Z,64.82
2022-11-07T08:25:52.699Z,63.83
2022-11-07T08:28:23.713Z,63.49
2022-11-07T08:31:18.093Z,63.15
2022-11-07T08:33:46.516Z,62.23
2022-11-07T08:36:15.209Z,62.19
2022-11-07T08:38:43.521Z,61.68
2022-11-07T08:41:12.020Z,61.26
2022-11-07T08:43:40.636Z,60.74
2022-11-07T08:46:09.026Z,60.74
2022-11-07T08:48:37.512Z,60.65
2022-11-07T08:51:06.194Z,60.41
2022-11-07T08:53:34.571Z,60.28
2022-11-07T08:56:04.541Z,60.05
2022-11-07T08:58:34.003Z,59.84
2022-11-07T09:01:06.025Z,59.87
2022-11-07T09:03:45.969Z,59.89
2022-11-07T09:06:16.272Z,59.60
2022-11-07T09:08:45.117Z,57.82
2022-11-07T09:11:16.050Z,57.34
2022-11-07T09:13:44.986Z,58.69
2022-11-07T09:16:13.315Z,60.88
2022-11-07T09:18:41.478Z,62.37
2022-11-07T09:21:09.702Z,63.66
2022-11-07T09:23:37.988Z,63.10
2022-11-07T09:26:07.346Z,62.60
2022-11-07T09:28:36.382Z,61.69
2022-11-07T09:31:06.661Z,61.03
2022-11-07T09:33:35.107Z,60.60
2022-11-07T09:36:05.468Z,59.94
2022-11-07T09:38:33.745Z,58.69
2022-11-07T09:41:10.725Z,58.59
2022-11-07T09:43:50.264Z,58.84
2022-11-07T09:46:34.174Z,60.50
2022-11-07T09:49:14.492Z,62.03
2022-11-07T09:51:47.592Z,62.93
2022-11-07T09:54:22.195Z,61.86
2022-11-07T09:56:51.888Z,61.07
2022-11-07T09:59:27.725Z,60.00
2022-11-07T10:01:56.178Z,57.58
2022-11-07T10:04:26.520Z,56.03
2022-11-07T10:07:38.474Z,57.07
2022-11-07T10:10:26.085Z,57.50
2022-11-07T10:13:17.369Z,59.80
2022-11-07T10:15:54.394Z,60.82
2022-11-07T10:18:41.340Z,62.78
2022-11-07T10:21:39.566Z,60.61
2022-11-07T10:24:29.237Z,59.12
2022-11-07T10:26:58.486Z,57.81
2022-11-07T10:29:44.116Z,57.18
2022-11-07T10:32:17.022Z,57.67
2022-11-07T10:34:57.565Z,58.11
2022-11-07T10:37:26.047Z,56.98
2022-11-07T10:39:54.527Z,57.40
2022-11-07T10:42:30.909Z,58.27
2022-11-07T10:44:59.905Z,57.55
2022-11-07T10:47:28.266Z,57.55
2022-11-07T10:50:02.779Z,57.94
2022-11-07T10:52:31.088Z,57.27
2022-11-07T10:55:17.074Z,57.48
2022-11-07T10:57:51.085Z,55.67
2022-11-07T11:00:24.534Z,56.73
2022-11-07T11:02:54.125Z,55.62
2022-11-07T11:05:40.672Z,55.34
2022-11-07T11:08:18.313Z,55.32
2022-11-07T11:10:48.385Z,54.73
2022-11-07T11:13:25.740Z,55.79
2022-11-07T11:16:00.017Z,54.93
2022-11-07T11:18:31.237Z,55.41
2022-11-07T11:21:06.833Z,54.75
2022-11-07T11:23:37.630Z,54.50
2022-11-07T11:26:09.231Z,54.66
2022-11-07T11:28:48.709Z,55.13
2022-11-07T11:31:32.754Z,55.14
2022-11-07T11:34:19.445Z,55.47
2022-11-07T11:36:57.062Z,56.01
2022-11-07T11:39:37.614Z,56.85
2022-11-07T11:42:12.041Z,57.49
2022-11-07T11:44:45.853Z,57.95
2022-11-07T11:47:34.544Z,58.52
2022-11-07T11:50:03.359Z,58.52
2022-11-07T11:52:32.282Z,58.92
2022-11-07T11:55:01.699Z,59.34
2022-11-07T11:57:46.041Z,59.45
2022-11-07T12:00:22.950Z,59.16
2022-11-07T12:03:16.051Z,58.72
2022-11-07T12:05:53.669Z,54.32
2022-11-07T12:08:50.512Z,49.30
2022-11-07T12:11:25.627Z,45.85
2022-11-07T12:14:21.266Z,41.22
2022-11-07T12:17:29.181Z,41.89
2022-11-07T12:20:15.944Z,38.06
2022-11-07T12:22:53.912Z,34.06
2022-11-07T12:25:26.966Z,32.76
2022-11-07T12:28:14.260Z,32.92
2022-11-07T12:30:48.483Z,32.34
2022-11-07T12:33:38.363Z,29.40
2022-11-07T12:36:37.680Z,31.10
2022-11-07T12:39:42.124Z,30.14
2022-11-07T12:42:21.054Z,31.84
2022-11-07T12:44:52.119Z,31.92
2022-11-07T12:47:37.562Z,31.90
2022-11-07T12:50:30.826Z,32.71
2022-11-07T12:53:37.108Z,34.32
2022-11-07T12:56:13.050Z,35.27
2022-11-07T12:58:44.904Z,35.78
2022-11-07T13:01:15.576Z,36.51
2022-11-07T13:04:02.676Z,37.66
2022-11-07T13:06:35.303Z,39.01
2022-11-07T13:09:15.900Z,40.14
2022-11-07T13:12:17.563Z,41.17
2022-11-07T13:14:46.500Z,41.99
2022-11-07T13:17:24.238Z,43.31
2022-11-07T13:20:24.369Z,44.18
2022-11-07T13:22:58.568Z,44.73
2022-11-07T13:25:32.223Z,46.58
2022-11-07T13:28:04.491Z,47.20
2022-11-07T13:30:38.280Z,48.32
2022-11-07T13:33:24.456Z,49.01
2022-11-07T13:35:55.715Z,50.05
2022-11-07T13:38:26.234Z,51.65
2022-11-07T13:41:04.144Z,52.17
2022-11-07T13:43:38.299Z,52.92
2022-11-07T13:46:11.742Z,53.79
2022-11-07T13:48:51.896Z,54.13
2022-11-07T13:51:34.198Z,54.81
2022-11-07T13:54:11.593Z,55.10
2022-11-07T13:56:45.962Z,55.92
2022-11-07T13:59:36.935Z,57.06
2022-11-07T14:02:06.168Z,57.05
2022-11-07T14:04:40.622Z,57.91
2022-11-07T14:07:26.367Z,58.72
2022-11-07T14:09:58.946Z,59.13
2022-11-07T14:12:28.922Z,59.20
2022-11-07T14:14:59.157Z,60.00
2022-11-07T14:17:36.572Z,63.21
2022-11-07T14:20:19.786Z,65.20
2022-11-07T14:22:52.151Z,64.08
2022-11-07T14:25:32.848Z,58.51
2022-11-07T14:28:02.090Z,56.14
2022-11-07T14:30:31.835Z,56.18
2022-11-07T14:33:02.561Z,56.64
2022-11-07T14:35:35.404Z,57.53
2022-11-07T14:38:12.060Z,58.01
2022-11-07T14:40:41.709Z,58.72
2022-11-07T14:43:18.164Z,59.69
2022-11-07T14:46:11.349Z,63.08
2022-11-07T14:48:36.648Z,65.63
2022-11-07T14:51:05.548Z,61.36
2022-11-07T14:53:42.546Z,57.66
2022-11-07T14:56:15.438Z,57.91
2022-11-07T14:58:44.074Z,57.52
2022-11-07T15:01:14.828Z,58.64
2022-11-07T15:03:57.634Z,59.62
2022-11-07T15:06:35.757Z,62.49
2022-11-07T15:09:07.075Z,65.70
2022-11-07T15:11:38.321Z,63.46
2022-11-07T15:14:22.387Z,61.68
2022-11-07T15:16:51.981Z,58.61
2022-11-07T15:19:23.025Z,57.55
2022-11-07T15:22:01.348Z,58.06
2022-11-07T15:24:42.169Z,58.59
2022-11-07T15:27:13.659Z,59.56
2022-11-07T15:29:53.701Z,62.04
2022-11-07T15:32:24.867Z,62.95
2022-11-07T15:35:23.319Z,65.03
2022-11-07T15:37:56.722Z,62.68
2022-11-07T15:40:26.758Z,62.05
2022-11-07T15:42:55.422Z,63.14
2022-11-07T15:45:24.288Z,62.44
2022-11-07T15:47:52.795Z,62.52
2022-11-07T15:50:27.197Z,62.64
2022-11-07T15:52:55.503Z,59.32
2022-11-07T15:55:24.481Z,57.25
2022-11-07T15:57:54.703Z,58.17
2022-11-07T16:00:25.383Z,59.14
2022-11-07T16:02:54.254Z,59.87
2022-11-07T16:05:22.718Z,63.64
2022-11-07T16:07:51.014Z,64.50
2022-11-07T16:10:25.289Z,64.24
2022-11-07T16:12:54.303Z,64.15
2022-11-07T16:15:25.237Z,63.41
2022-11-07T16:17:53.432Z,63.05
2022-11-07T16:20:23.505Z,62.41
2022-11-07T16:22:52.248Z,61.59
2022-11-07T16:25:24.694Z,61.39
2022-11-07T16:27:54.798Z,61.10
2022-11-07T16:30:23.154Z,61.66
2022-11-07T16:32:51.457Z,60.21
2022-11-07T16:35:20.142Z,58.59
2022-11-07T16:37:48.831Z,57.53
2022-11-07T16:40:19.674Z,58.20
2022-11-07T16:42:48.252Z,60.18
2022-11-07T16:45:20.599Z,62.92
2022-11-07T16:47:48.920Z,65.24
2022-11-07T16:50:17.599Z,63.77
2022-11-07T16:52:45.789Z,62.95
2022-11-07T16:55:16.212Z,62.07
2022-11-07T16:57:44.964Z,62.11
2022-11-07T17:00:19.338Z,61.98
2022-11-07T17:02:48.288Z,61.68
2022-11-07T17:05:16.915Z,60.72
2022-11-07T17:07:45.294Z,59.28
2022-11-07T17:10:17.010Z,58.06
2022-11-07T17:12:45.209Z,58.56
2022-11-07T17:15:14.257Z,59.88
2022-11-07T17:17:42.544Z,62.36
2022-11-07T17:20:50.023Z,64.67
2022-11-07T17:23:10.971Z,63.84
2022-11-07T17:25:40.184Z,63.09
2022-11-07T17:28:09.743Z,62.56
2022-11-07T17:30:38.533Z,61.70
2022-11-07T17:33:06.848Z,61.26
2022-11-07T17:35:36.516Z,60.86
2022-11-07T17:38:05.608Z,60.12
2022-11-07T17:40:34.738Z,58.59
2022-11-07T17:43:03.177Z,57.99
2022-11-07T17:45:31.469Z,58.78
2022-11-07T17:48:00.051Z,59.72
2022-11-07T17:50:28.295Z,62.46
2022-11-07T17:52:56.723Z,64.65
2022-11-07T17:55:28.866Z,63.85
2022-11-07T17:57:57.312Z,62.88
2022-11-07T18:00:27.485Z,63.27
2022-11-07T18:02:55.761Z,61.60
2022-11-07T18:05:31.747Z,61.41
2022-11-07T18:08:01.816Z,60.33
2022-11-07T18:10:30.351Z,59.00
2022-11-07T18:12:59.176Z,58.68
2022-11-07T18:15:27.464Z,59.91
2022-11-07T18:17:56.066Z,61.70
2022-11-07T18:20:24.397Z,63.69
2022-11-07T18:22:52.610Z,64.00
2022-11-07T18:25:21.156Z,63.08
2022-11-07T18:27:49.402Z,63.17
2022-11-07T18:30:17.826Z,62.86
2022-11-07T18:32:46.088Z,61.01
2022-11-07T18:35:16.846Z,60.62
2022-11-07T18:37:45.121Z,60.68
2022-11-07T18:40:14.422Z,60.68
2022-11-07T18:42:44.547Z,61.02
2022-11-07T18:45:13.962Z,62.41
2022-11-07T18:47:42.390Z,58.53
2022-11-07T18:50:11.416Z,56.98
2022-11-07T18:52:39.907Z,57.54
2022-11-07T18:55:09.705Z,59.93
2022-11-07T18:57:41.687Z,61.36
2022-11-07T19:00:13.581Z,63.13
2022-11-07T19:02:42.844Z,63.66
2022-11-07T19:05:11.076Z,63.45
2022-11-07T19:07:43.067Z,62.51
2022-11-07T19:10:12.879Z,61.79
2022-11-07T19:12:41.896Z,61.79
2022-11-07T19:15:10.791Z,61.20
2022-11-07T19:17:40.062Z,60.62
2022-11-07T19:20:09.387Z,60.57
2022-11-07T19:22:37.638Z,60.42
2022-11-07T19:25:06.960Z,60.29
2022-11-07T19:27:35.521Z,58.89
2022-11-07T19:30:06.373Z,58.45
2022-11-07T19:32:35.355Z,58.77
2022-11-07T19:35:07.420Z,60.87
2022-11-07T19:37:37.254Z,62.49
2022-11-07T19:40:06.831Z,64.48
2022-11-07T19:42:35.518Z,64.27
2022-11-07T19:45:04.428Z,65.42
2022-11-07T19:47:33.198Z,64.50
2022-11-07T19:50:01.804Z,63.46
2022-11-07T19:52:30.386Z,61.88
2022-11-07T19:54:59.139Z,61.54
2022-11-07T19:57:27.328Z,58.31
2022-11-07T19:59:55.826Z,57.72
2022-11-07T20:02:32.908Z,58.34
2022-11-07T20:05:01.796Z,59.26
2022-11-07T20:07:30.480Z,62.28
2022-11-07T20:09:59.045Z,65.36
2022-11-07T20:12:27.632Z,63.76
2022-11-07T20:14:56.315Z,62.63
2022-11-07T20:17:24.447Z,59.27
2022-11-07T20:19:52.751Z,58.24
2022-11-07T20:22:21.653Z,58.77
2022-11-07T20:24:50.852Z,60.55
2022-11-07T20:27:19.333Z,64.20
2022-11-07T20:29:48.080Z,65.28
2022-11-07T20:32:17.169Z,64.12
2022-11-07T20:34:48.765Z,63.24
2022-11-07T20:37:21.725Z,62.63
2022-11-07T20:39:50.776Z,60.81
2022-11-07T20:42:18.991Z,58.51
2022-11-07T20:44:50.066Z,57.08
2022-11-07T20:47:18.442Z,57.80
2022-11-07T20:49:46.720Z,60.75
2022-11-07T20:52:15.130Z,63.87
2022-11-07T20:54:43.464Z,65.80
2022-11-07T20:57:11.749Z,63.89
2022-11-07T20:59:42.103Z,62.00
2022-11-07T21:02:11.799Z,58.54
2022-11-07T21:05:03.302Z,57.06
2022-11-07T21:07:28.713Z,58.05
2022-11-07T21:09:57.155Z,59.41
2022-11-07T21:12:25.419Z,63.05
2022-11-07T21:14:54.868Z,65.41
2022-11-07T21:17:23.068Z,63.72
2022-11-07T21:19:51.294Z,61.61
2022-11-07T21:22:19.500Z,58.37
2022-11-07T21:24:47.974Z,57.18
2022-11-07T21:27:16.660Z,58.49
2022-11-07T21:29:45.093Z,59.80
2022-11-07T21:32:13.298Z,64.02
2022-11-07T21:34:42.864Z,65.73
2022-11-07T21:37:11.200Z,64.09
2022-11-07T21:39:39.472Z,61.83
2022-11-07T21:42:07.952Z,59.14
2022-11-07T21:44:36.285Z,57.46
2022-11-07T21:47:04.709Z,58.40
2022-11-07T21:49:33.261Z,59.88
2022-11-07T21:52:01.915Z,63.74
2022-11-07T21:54:30.253Z,65.09
2022-11-07T21:57:00.382Z,63.33
2022-11-07T21:59:29.194Z,61.85
2022-11-07T22:01:57.767Z,60.97
